Time,TemperatureF,DewpointF,PressureIn,WindDirection,WindDirectionDegrees,WindSpeedMPH,WindSpeedGustMPH,Humidity,HourlyPrecipIn,Conditions,Clouds,dailyrainin,SoftwareType,DateUTC
2013-04-22 00:09:00,53.6,51.0,30.15,ESE,114,0.0,-999.0,90,-99.99,,,0.00,weatherlink.com 1.10,2013-04-22 05:09:00,
2013-04-22 00:24:00,53.2,50.0,30.14,ESE,114,0.0,-999.0,90,-99.99,,,0.00,weatherlink.com 1.10,2013-04-22 05:24:00,
2013-04-22 00:39:00,52.8,50.0,30.14,ESE,114,0.0,-999.0,91,-99.99,,,0.00,weatherlink.com 1.10,2013-04-22 05:39:00,
2013-04-22 00:54:00,52.4,50.0,30.14,ESE,114,0.0,-999.0,92,-99.99,,,0.00,weatherlink.com 1.10,2013-04-22 05:54:00,
2013-04-22 01:09:00,52.1,50.0,30.13,ESE,114,0.0,-999.0,92,-99.99,,,0.00,weatherlink.com 1.10,2013-04-22 06:09:00,
2013-04-22 01:24:00,51.8,50.0,30.13,ESE,114,0.0,-999.0,92,-99.99,,,0.00,weatherlink.com 1.10,2013-04-22 06:24:00,
2013-04-22 01:39:00,51.5,49.0,30.12,ESE,114,0.0,-999.0,92,-99.99,,,0.00,weatherlink.com 1.10,2013-04-22 06:39:00,
2013-04-22 01:54:00,51.2,49.0,30.12,ESE,114,0.0,-999.0,93,-99.99,,,0.00,weatherlink.com 1.10,2013-04-22 06:54:00,
2013-04-22 02:09:00,50.8,49.0,30.12,ESE,114,0.0,-999.0,93,-99.99,,,0.00,weatherlink.com 1.10,2013-04-22 07:09:00,
2013-04-22 02:24:00,50.6,49.0,30.12,ESE,114,0.0,-999.0,93,-99.99,,,0.00,weatherlink.com 1.10,2013-04-22 07:24:00,
2013-04-22 02:39:00,50.3,48.0,30.11,ESE,114,0.0,-999.0,93,-99.99,,,0.00,weatherlink.com 1.10,2013-04-22 07:39:00,
2013-04-22 02:54:00,50.1,48.0,30.11,ESE,114,0.0,-999.0,93,-99.99,,,0.00,weatherlink.com 1.10,2013-04-22 07:54:00,
2013-04-22 03:09:00,49.8,48.0,30.10,ESE,114,0.0,-999.0,94,-99.99,,,0.00,weatherlink.com 1.10,2013-04-22 08:09:00,
2013-04-22 03:24:00,49.6,48.0,30.10,ESE,114,0.0,-999.0,94,-99.99,,,0.00,weatherlink.com 1.10,2013-04-22 08:24:00,
2013-04-22 03:39:00,49.4,48.0,30.11,ESE,114,0.0,-999.0,94,-99.99,,,0.00,weatherlink.com 1.10,2013-04-22 08:39:00,
2013-04-22 03:54:00,49.2,48.0,30.10,ESE,114,0.0,-999.0,94,-99.99,,,0.00,weatherlink.com 1.10,2013-04-22 08:54:00,
2013-04-22 04:09:00,49.2,48.0,30.11,ESE,114,0.0,-999.0,94,-99.99,,,0.00,weatherlink.com 1.10,2013-04-22 09:09:00,
2013-04-22 04:24:00,49.1,48.0,30.11,ESE,114,0.0,-999.0,94,-99.99,,,0.00,weatherlink.com 1.10,2013-04-22 09:24:00,
2013-04-22 04:39:00,49.0,47.0,30.11,ESE,114,0.0,-999.0,94,-99.99,,,0.00,weatherlink.com 1.10,2013-04-22 09:39:00,
2013-04-22 04:54:00,48.8,47.0,30.11,ESE,114,0.0,-999.0,94,-99.99,,,0.00,weatherlink.com 1.10,2013-04-22 09:54:00,
2013-04-22 05:09:00,48.7,47.0,30.11,ESE,114,0.0,-999.0,95,-99.99,,,0.00,weatherlink.com 1.10,2013-04-22 10:09:00,
2013-04-22 05:24:00,48.6,47.0,30.11,ESE,114,0.0,-999.0,95,-99.99,,,0.00,weatherlink.com 1.10,2013-04-22 10:24:00,
2013-04-22 05:39:00,48.4,47.0,30.11,ESE,114,0.0,-999.0,95,-99.99,,,0.00,weatherlink.com 1.10,2013-04-22 10:39:00,
2013-04-22 05:54:00,48.2,47.0,30.11,ESE,114,0.0,-999.0,95,-99.99,,,0.00,weatherlink.com 1.10,2013-04-22 10:54:00,
2013-04-22 06:09:00,47.9,46.0,30.12,ESE,114,0.0,-999.0,94,-99.99,,,0.00,weatherlink.com 1.10,2013-04-22 11:09:00,
2013-04-22 06:24:00,47.7,46.0,30.12,ESE,114,0.0,-999.0,95,-99.99,,,0.00,weatherlink.com 1.10,2013-04-22 11:24:00,
2013-04-22 06:39:00,47.8,47.0,30.12,ESE,114,0.0,-999.0,95,-99.99,,,0.00,weatherlink.com 1.10,2013-04-22 11:39:00,
2013-04-22 06:54:00,47.7,46.0,30.12,ESE,114,0.0,-999.0,95,-99.99,,,0.00,weatherlink.com 1.10,2013-04-22 11:54:00,
2013-04-22 07:09:00,48.6,48.0,30.13,ESE,114,0.0,-999.0,96,-99.99,,,0.00,weatherlink.com 1.10,2013-04-22 12:09:00,
2013-04-22 07:24:00,50.1,49.0,30.13,ENE,67,0.0,-999.0,96,-99.99,,,0.00,weatherlink.com 1.10,2013-04-22 12:24:00,
2013-04-22 07:39:00,51.2,50.0,30.13,ENE,67,0.0,-999.0,96,-99.99,,,0.00,weatherlink.com 1.10,2013-04-22 12:39:00,
2013-04-22 07:54:00,52.6,52.0,30.13,ENE,68,0.0,-999.0,96,-99.99,,,0.00,weatherlink.com 1.10,2013-04-22 12:54:00,
2013-04-22 08:09:00,54.1,53.0,30.13,NE,53,0.0,-999.0,96,-99.99,,,0.00,weatherlink.com 1.10,2013-04-22 13:09:00,
2013-04-22 08:24:00,56.1,54.0,30.13,ENE,71,1.0,-999.0,93,-99.99,,,0.00,weatherlink.com 1.10,2013-04-22 13:24:00,
2013-04-22 08:40:00,58.4,54.0,30.13,ENE,66,2.0,-999.0,84,-99.99,,,0.00,weatherlink.com 1.10,2013-04-22 13:40:00,
2013-04-22 08:55:00,60.8,54.0,30.13,NE,54,4.0,-999.0,79,-99.99,,,0.00,weatherlink.com 1.10,2013-04-22 13:55:00,
2013-04-22 09:10:00,62.7,55.0,30.14,ENE,61,5.0,-999.0,75,-99.99,,,0.00,weatherlink.com 1.10,2013-04-22 14:10:00,
2013-04-22 09:25:00,64.2,55.0,30.14,East,91,1.0,-999.0,72,-99.99,,,0.00,weatherlink.com 1.10,2013-04-22 14:25:00,
2013-04-22 09:40:00,65.6,56.0,30.14,ENE,64,1.0,-999.0,70,-99.99,,,0.00,weatherlink.com 1.10,2013-04-22 14:40:00,
2013-04-22 09:55:00,67.6,55.0,30.14,ENE,73,4.0,-999.0,64,-99.99,,,0.00,weatherlink.com 1.10,2013-04-22 14:55:00,
2013-04-22 10:10:00,69.8,56.0,30.14,NE,46,4.0,-999.0,61,-99.99,,,0.00,weatherlink.com 1.10,2013-04-22 15:10:00,
2013-04-22 10:38:00,72.5,53.0,30.14,SE,127,7.0,-999.0,51,-99.99,,,0.00,weatherlink.com 1.10,2013-04-22 15:38:00,
2013-04-22 10:55:00,73.0,54.0,30.14,SE,128,1.0,-999.0,51,-99.99,,,0.00,weatherlink.com 1.10,2013-04-22 15:55:00,
2013-04-22 11:10:00,74.3,54.0,30.15,East,87,4.0,-999.0,49,-99.99,,,0.00,weatherlink.com 1.10,2013-04-22 16:10:00,
2013-04-22 11:25:00,74.3,52.0,30.15,NE,56,6.0,-999.0,46,-99.99,,,0.00,weatherlink.com 1.10,2013-04-22 16:25:00,
2013-04-22 11:40:00,75.6,53.0,30.14,East,92,9.0,-999.0,46,-99.99,,,0.00,weatherlink.com 1.10,2013-04-22 16:40:00,
2013-04-22 11:55:00,76.1,51.0,30.14,ESE,102,0.0,-999.0,41,-99.99,,,0.00,weatherlink.com 1.10,2013-04-22 16:55:00,
2013-04-22 12:10:00,76.1,51.0,30.13,ENE,71,2.0,-999.0,42,-99.99,,,0.00,weatherlink.com 1.10,2013-04-22 17:10:00,
2013-04-22 12:25:00,76.4,51.0,30.12,ENE,67,0.0,-999.0,41,-99.99,,,0.00,weatherlink.com 1.10,2013-04-22 17:25:00,
2013-04-22 12:40:00,77.2,51.0,30.12,ESE,121,1.0,-999.0,40,-99.99,,,0.00,weatherlink.com 1.10,2013-04-22 17:40:00,
2013-04-22 12:55:00,77.5,51.0,30.11,SE,125,4.0,-999.0,40,-99.99,,,0.00,weatherlink.com 1.10,2013-04-22 17:55:00,
2013-04-22 13:10:00,78.4,51.0,30.11,NE,37,2.0,-999.0,38,-99.99,,,0.00,weatherlink.com 1.10,2013-04-22 18:10:00,
2013-04-22 13:25:00,79.0,53.0,30.10,ENE,66,0.0,-999.0,41,-99.99,,,0.00,weatherlink.com 1.10,2013-04-22 18:25:00,
2013-04-22 13:40:00,78.8,52.0,30.10,NE,36,7.0,-999.0,39,-99.99,,,0.00,weatherlink.com 1.10,2013-04-22 18:40:00,
2013-04-22 13:55:00,80.5,53.0,30.09,ENE,77,2.0,-999.0,38,-99.99,,,0.00,weatherlink.com 1.10,2013-04-22 18:55:00,
2013-04-22 14:11:00,80.2,52.0,30.08,ESE,117,0.0,-999.0,37,-99.99,,,0.00,weatherlink.com 1.10,2013-04-22 19:11:00,
2013-04-22 14:26:00,79.9,51.0,30.07,East,101,4.0,-999.0,37,-99.99,,,0.00,weatherlink.com 1.10,2013-04-22 19:26:00,
2013-04-22 14:41:00,80.4,53.0,30.07,ESE,123,6.0,-999.0,39,-99.99,,,0.00,weatherlink.com 1.10,2013-04-22 19:41:00,
2013-04-22 14:56:00,80.6,51.0,30.06,ENE,67,0.0,-999.0,36,-99.99,,,0.00,weatherlink.com 1.10,2013-04-22 19:56:00,
2013-04-22 15:22:00,81.6,53.0,30.06,ESE,105,0.0,-999.0,37,-99.99,,,0.00,weatherlink.com 1.10,2013-04-22 20:22:00,
2013-04-22 15:41:00,81.3,52.0,30.04,ENE,69,2.0,-999.0,36,-99.99,,,0.00,weatherlink.com 1.10,2013-04-22 20:41:00,
2013-04-22 15:56:00,81.9,54.0,30.03,NE,46,7.0,-999.0,38,-99.99,,,0.00,weatherlink.com 1.10,2013-04-22 20:56:00,
2013-04-22 16:11:00,82.7,55.0,30.02,SE,126,5.0,-999.0,38,-99.99,,,0.00,weatherlink.com 1.10,2013-04-22 21:11:00,
2013-04-22 16:26:00,81.8,54.0,30.02,NE,55,3.0,-999.0,39,-99.99,,,0.00,weatherlink.com 1.10,2013-04-22 21:26:00,
2013-04-22 16:41:00,81.6,56.0,30.01,SE,133,8.0,-999.0,41,-99.99,,,0.00,weatherlink.com 1.10,2013-04-22 21:41:00,
2013-04-22 16:56:00,81.8,54.0,30.01,SE,130,6.0,-999.0,38,-99.99,,,0.00,weatherlink.com 1.10,2013-04-22 21:56:00,
2013-04-22 17:11:00,81.8,56.0,30.01,SE,142,0.0,-999.0,41,-99.99,,,0.00,weatherlink.com 1.10,2013-04-22 22:11:00,
2013-04-22 17:26:00,81.1,55.0,30.00,ENE,75,0.0,-999.0,41,-99.99,,,0.00,weatherlink.com 1.10,2013-04-22 22:26:00,
2013-04-22 17:41:00,80.2,58.0,30.00,ESE,111,4.0,-999.0,46,-99.99,,,0.00,weatherlink.com 1.10,2013-04-22 22:41:00,
2013-04-22 17:56:00,79.2,58.0,30.00,ESE,111,5.0,-999.0,48,-99.99,,,0.00,weatherlink.com 1.10,2013-04-22 22:56:00,
2013-04-22 18:11:00,78.7,58.0,30.00,SE,142,1.0,-999.0,50,-99.99,,,0.00,weatherlink.com 1.10,2013-04-22 23:11:00,
2013-04-22 18:26:00,78.4,59.0,30.00,ESE,118,1.0,-999.0,52,-99.99,,,0.00,weatherlink.com 1.10,2013-04-22 23:26:00,
2013-04-22 18:41:00,77.3,58.0,30.00,ESE,114,0.0,-999.0,52,-99.99,,,0.00,weatherlink.com 1.10,2013-04-22 23:41:00,
2013-04-22 18:56:00,76.3,58.0,30.00,SSE,155,4.0,-999.0,54,-99.99,,,0.00,weatherlink.com 1.10,2013-04-22 23:56:00,
2013-04-22 19:11:00,75.5,59.0,30.00,SE,124,0.0,-999.0,56,-99.99,,,0.00,weatherlink.com 1.10,2013-04-23 00:11:00,
2013-04-22 19:26:00,75.0,59.0,30.00,SE,126,0.0,-999.0,57,-99.99,,,0.00,weatherlink.com 1.10,2013-04-23 00:26:00,
2013-04-22 19:41:00,74.2,59.0,30.00,SE,126,0.0,-999.0,60,-99.99,,,0.00,weatherlink.com 1.10,2013-04-23 00:41:00,
2013-04-22 19:55:00,73.1,59.0,30.01,SE,126,0.0,-999.0,62,-99.99,,,0.00,weatherlink.com 1.10,2013-04-23 00:55:00,
2013-04-22 20:11:00,71.7,59.0,30.01,ESE,113,2.0,-999.0,65,-99.99,,,0.00,weatherlink.com 1.10,2013-04-23 01:11:00,
2013-04-22 20:26:00,71.2,61.0,30.02,ESE,121,0.0,-999.0,70,-99.99,,,0.00,weatherlink.com 1.10,2013-04-23 01:26:00,
2013-04-22 20:41:00,70.6,62.0,30.03,ESE,123,2.0,-999.0,73,-99.99,,,0.00,weatherlink.com 1.10,2013-04-23 01:41:00,
2013-04-22 20:56:00,70.1,63.0,30.03,ESE,117,2.0,-999.0,77,-99.99,,,0.00,weatherlink.com 1.10,2013-04-23 01:56:00,
2013-04-22 21:11:00,69.6,63.0,30.04,SE,125,0.0,-999.0,79,-99.99,,,0.00,weatherlink.com 1.10,2013-04-23 02:11:00,
2013-04-22 21:26:00,69.2,63.0,30.04,ESE,108,0.0,-999.0,80,-99.99,,,0.00,weatherlink.com 1.10,2013-04-23 02:26:00,
2013-04-22 21:41:00,68.8,63.0,30.04,ESE,113,0.0,-999.0,82,-99.99,,,0.00,weatherlink.com 1.10,2013-04-23 02:41:00,
2013-04-22 21:56:00,68.5,63.0,30.04,ESE,110,1.0,-999.0,83,-99.99,,,0.00,weatherlink.com 1.10,2013-04-23 02:56:00,
2013-04-22 22:11:00,68.1,63.0,30.04,ESE,119,4.0,-999.0,84,-99.99,,,0.00,weatherlink.com 1.10,2013-04-23 03:11:00,
2013-04-22 22:26:00,67.8,64.0,30.04,SE,124,4.0,-999.0,86,-99.99,,,0.00,weatherlink.com 1.10,2013-04-23 03:26:00,
2013-04-22 22:41:00,67.5,64.0,30.04,SE,128,0.0,-999.0,87,-99.99,,,0.00,weatherlink.com 1.10,2013-04-23 03:41:00,
2013-04-22 22:56:00,67.2,64.0,30.04,SE,142,0.0,-999.0,88,-99.99,,,0.00,weatherlink.com 1.10,2013-04-23 03:56:00,
2013-04-22 23:11:00,66.9,64.0,30.04,SE,129,0.0,-999.0,89,-99.99,,,0.00,weatherlink.com 1.10,2013-04-23 04:11:00,
2013-04-22 23:26:00,66.7,64.0,30.04,ENE,67,1.0,-999.0,90,-99.99,,,0.00,weatherlink.com 1.10,2013-04-23 04:26:00,
2013-04-22 23:41:00,66.4,64.0,30.04,SE,146,0.0,-999.0,91,-99.99,,,0.00,weatherlink.com 1.10,2013-04-23 04:41:00,
2013-04-22 23:56:00,66.3,64.0,30.04,ESE,111,0.0,-999.0,91,-99.99,,,0.00,weatherlink.com 1.10,2013-04-23 04:56:00,